createdAt,value
2023-05-18T00:00:25.058Z,0
2023-05-18T00:01:41.184Z,0
2023-05-18T00:02:57.329Z,0
2023-05-18T00:04:13.445Z,0
2023-05-18T00:05:29.582Z,0
2023-05-18T00:06:45.743Z,0
2023-05-18T00:08:01.873Z,0
2023-05-18T00:09:18.001Z,0
2023-05-18T00:10:34.131Z,0
2023-05-18T00:11:50.266Z,0
2023-05-18T00:13:06.418Z,0
2023-05-18T00:14:22.541Z,0
2023-05-18T00:15:38.676Z,0
2023-05-18T00:16:54.806Z,0
2023-05-18T00:18:10.954Z,0
2023-05-18T00:19:27.083Z,0
2023-05-18T00:20:43.229Z,0
2023-05-18T00:21:59.367Z,0
2023-05-18T00:23:15.500Z,0
2023-05-18T00:24:31.625Z,0
2023-05-18T00:25:47.764Z,0
2023-05-18T00:27:03.897Z,0
2023-05-18T00:28:20.042Z,0
2023-05-18T00:29:36.165Z,0
2023-05-18T00:30:52.312Z,0
2023-05-18T00:32:08.518Z,0
2023-05-18T00:33:23.752Z,0
2023-05-18T00:34:38.960Z,0
2023-05-18T00:35:55.109Z,0
2023-05-18T00:37:11.227Z,0
2023-05-18T00:38:27.368Z,0
2023-05-18T00:39:43.504Z,0
2023-05-18T00:40:59.623Z,0
2023-05-18T00:42:15.774Z,0
2023-05-18T00:43:31.904Z,0
2023-05-18T00:44:48.039Z,0
2023-05-18T00:46:04.167Z,0
2023-05-18T00:47:20.309Z,0
2023-05-18T00:48:36.451Z,0
2023-05-18T00:49:52.592Z,0
2023-05-18T00:51:08.723Z,0
2023-05-18T00:52:24.860Z,0
2023-05-18T00:53:40.994Z,0
2023-05-18T00:54:57.143Z,0
2023-05-18T00:56:13.275Z,0
2023-05-18T00:57:29.407Z,0
2023-05-18T00:58:45.538Z,0
2023-05-18T01:00:01.676Z,0
2023-05-18T01:01:17.813Z,0
2023-05-18T01:02:33.939Z,0
2023-05-18T01:03:50.078Z,0
2023-05-18T01:05:06.216Z,0
2023-05-18T01:06:22.401Z,0
2023-05-18T01:07:37.649Z,0
2023-05-18T01:08:52.846Z,0
2023-05-18T01:10:07.998Z,0
2023-05-18T01:11:24.140Z,0
2023-05-18T01:12:40.272Z,0
2023-05-18T01:13:56.408Z,0
2023-05-18T01:15:12.535Z,0
2023-05-18T01:16:28.680Z,0
2023-05-18T01:17:44.000Z,0
2023-05-18T01:19:00.954Z,0
2023-05-18T01:20:17.081Z,0
2023-05-18T01:21:33.208Z,0
2023-05-18T01:22:49.371Z,0
2023-05-18T01:24:05.506Z,0
2023-05-18T01:25:21.633Z,0
2023-05-18T01:26:37.763Z,0
2023-05-18T01:27:53.895Z,0
2023-05-18T01:29:10.052Z,0
2023-05-18T01:30:26.181Z,0
2023-05-18T01:31:42.314Z,0
2023-05-18T01:32:58.439Z,0
2023-05-18T01:34:14.568Z,0
2023-05-18T01:35:30.728Z,0
2023-05-18T01:36:46.855Z,0
2023-05-18T01:38:02.998Z,0
2023-05-18T01:39:19.115Z,0
2023-05-18T01:40:35.000Z,0
2023-05-18T01:41:51.411Z,0
2023-05-18T01:43:07.531Z,0
2023-05-18T01:44:23.676Z,0
2023-05-18T01:45:39.802Z,0
2023-05-18T01:46:55.939Z,0
2023-05-18T01:48:12.081Z,0
2023-05-18T01:49:28.211Z,0
2023-05-18T01:50:44.360Z,0
2023-05-18T01:52:00.475Z,0
2023-05-18T01:53:16.608Z,0
2023-05-18T01:54:32.771Z,0
2023-05-18T01:55:48.899Z,0
2023-05-18T01:57:05.085Z,0
2023-05-18T01:58:20.332Z,0
2023-05-18T01:59:35.542Z,0
2023-05-18T02:00:51.673Z,0
2023-05-18T02:02:07.807Z,0
2023-05-18T02:03:23.933Z,0
2023-05-18T02:04:40.080Z,0
2023-05-18T02:05:56.208Z,0
2023-05-18T02:07:12.347Z,0
2023-05-18T02:08:28.483Z,0
2023-05-18T02:09:44.609Z,0
2023-05-18T02:11:00.761Z,0
2023-05-18T02:12:16.901Z,0
2023-05-18T02:13:33.024Z,0
2023-05-18T02:14:49.166Z,0
2023-05-18T02:16:05.306Z,0
2023-05-18T02:17:21.448Z,0
2023-05-18T02:18:37.584Z,0
2023-05-18T02:19:53.711Z,0
2023-05-18T02:21:09.847Z,0
2023-05-18T02:22:25.978Z,0
2023-05-18T02:23:42.139Z,0
2023-05-18T02:24:58.265Z,0
2023-05-18T02:26:14.391Z,0
2023-05-18T02:27:30.521Z,0
2023-05-18T02:28:46.673Z,0
2023-05-18T02:30:02.815Z,0
2023-05-18T02:31:19.011Z,0
2023-05-18T02:32:34.266Z,0
2023-05-18T02:33:50.451Z,0
2023-05-18T02:35:05.665Z,0
2023-05-18T02:36:21.805Z,0
2023-05-18T02:37:37.928Z,0
2023-05-18T02:38:54.062Z,0
2023-05-18T02:40:10.209Z,0
2023-05-18T02:41:26.341Z,0
2023-05-18T02:42:42.480Z,0
2023-05-18T02:43:58.604Z,0
2023-05-18T02:45:14.748Z,0
2023-05-18T02:46:30.891Z,0
2023-05-18T02:47:47.033Z,0
2023-05-18T02:49:03.156Z,0
2023-05-18T02:50:19.303Z,0
2023-05-18T02:51:35.437Z,0
2023-05-18T02:52:51.585Z,0
2023-05-18T02:54:07.718Z,0
2023-05-18T02:55:23.841Z,0
2023-05-18T02:56:39.972Z,0
2023-05-18T02:57:56.104Z,0
2023-05-18T02:59:12.259Z,0
2023-05-18T03:00:28.388Z,0
2023-05-18T03:01:44.521Z,0
2023-05-18T03:03:00.655Z,0
2023-05-18T03:04:16.789Z,0
2023-05-18T03:05:32.952Z,0
2023-05-18T03:06:49.141Z,0
2023-05-18T03:08:04.384Z,0
2023-05-18T03:09:19.574Z,0
2023-05-18T03:10:35.711Z,0
2023-05-18T03:11:51.840Z,0
2023-05-18T03:13:07.974Z,0
2023-05-18T03:14:24.119Z,0
2023-05-18T03:15:40.258Z,0
2023-05-18T03:16:56.391Z,0
2023-05-18T03:18:12.537Z,0
2023-05-18T03:19:28.660Z,0
2023-05-18T03:20:44.805Z,0
2023-05-18T03:22:00.936Z,0
2023-05-18T03:23:17.070Z,0
2023-05-18T03:24:33.210Z,0
2023-05-18T03:25:49.355Z,0
2023-05-18T03:27:05.483Z,0
2023-05-18T03:28:21.623Z,0
2023-05-18T03:29:37.762Z,5
2023-05-18T03:30:53.892Z,5
2023-05-18T03:32:10.035Z,5
2023-05-18T03:33:26.161Z,5
2023-05-18T03:34:42.317Z,5
2023-05-18T03:35:58.440Z,5
2023-05-18T03:37:14.576Z,5
2023-05-18T03:38:30.701Z,5
2023-05-18T03:39:46.855Z,5
2023-05-18T03:41:03.060Z,5
2023-05-18T03:42:18.285Z,11
2023-05-18T03:43:33.493Z,11
2023-05-18T03:44:49.649Z,11
2023-05-18T03:46:05.773Z,11
2023-05-18T03:47:21.916Z,11
2023-05-18T03:48:38.047Z,11
2023-05-18T03:49:54.168Z,16
2023-05-18T03:51:10.316Z,16
2023-05-18T03:52:26.460Z,16
2023-05-18T03:53:42.590Z,16
2023-05-18T03:54:58.723Z,22
2023-05-18T03:56:14.853Z,22
2023-05-18T03:57:31.015Z,22
2023-05-18T03:58:47.132Z,22
2023-05-18T04:00:03.272Z,22
2023-05-18T04:01:19.414Z,22
2023-05-18T04:02:35.542Z,28
2023-05-18T04:03:51.681Z,28
2023-05-18T04:05:07.827Z,28
2023-05-18T04:06:23.956Z,28
2023-05-18T04:07:40.083Z,33
2023-05-18T04:08:56.218Z,33
2023-05-18T04:10:12.376Z,33
2023-05-18T04:11:28.506Z,33
2023-05-18T04:12:44.633Z,33
2023-05-18T04:14:00.779Z,33
2023-05-18T04:15:16.968Z,33
2023-05-18T04:16:32.201Z,33
2023-05-18T04:17:48.395Z,33
2023-05-18T04:19:03.604Z,33
2023-05-18T04:20:19.737Z,39
2023-05-18T04:21:35.879Z,39
2023-05-18T04:22:52.005Z,39
2023-05-18T04:24:08.157Z,39
2023-05-18T04:25:24.275Z,39
2023-05-18T04:26:40.430Z,39
2023-05-18T04:27:56.567Z,39
2023-05-18T04:29:12.691Z,39
2023-05-18T04:30:28.829Z,45
2023-05-18T04:31:44.963Z,45
2023-05-18T04:33:01.118Z,45
2023-05-18T04:34:17.240Z,45
2023-05-18T04:35:33.384Z,45
2023-05-18T04:36:49.520Z,45
2023-05-18T04:38:05.647Z,50
2023-05-18T04:39:21.792Z,50
2023-05-18T04:40:37.933Z,50
2023-05-18T04:41:54.061Z,50
2023-05-18T04:43:10.201Z,56
2023-05-18T04:44:26.336Z,56
2023-05-18T04:45:42.471Z,56
2023-05-18T04:46:58.611Z,56
2023-05-18T04:48:14.743Z,56
2023-05-18T04:49:30.869Z,56
2023-05-18T04:50:47.063Z,56
2023-05-18T04:52:02.307Z,56
2023-05-18T04:53:17.525Z,56
2023-05-18T04:54:33.655Z,56
2023-05-18T04:55:49.803Z,56
2023-05-18T04:57:05.933Z,61
2023-05-18T04:58:22.072Z,61
2023-05-18T04:59:38.195Z,61
2023-05-18T05:00:54.341Z,61
2023-05-18T05:02:10.476Z,61
2023-05-18T05:03:26.620Z,61
2023-05-18T05:04:42.743Z,61
2023-05-18T05:05:58.874Z,61
2023-05-18T05:07:15.021Z,61
2023-05-18T05:08:31.155Z,67
2023-05-18T05:09:47.287Z,67
2023-05-18T05:11:03.437Z,67
2023-05-18T05:12:19.572Z,67
2023-05-18T05:13:35.702Z,73
2023-05-18T05:14:51.838Z,73
2023-05-18T05:16:07.986Z,73
2023-05-18T05:17:24.111Z,73
2023-05-18T05:18:40.253Z,78
2023-05-18T05:19:56.383Z,78
2023-05-18T05:21:12.527Z,78
2023-05-18T05:22:28.656Z,84
2023-05-18T05:23:44.789Z,84
2023-05-18T05:25:00.981Z,84
2023-05-18T05:26:16.213Z,84
2023-05-18T05:27:31.424Z,90
2023-05-18T05:28:46.570Z,90
2023-05-18T05:30:02.725Z,95
2023-05-18T05:31:18.849Z,101
2023-05-18T05:32:34.996Z,101
2023-05-18T05:33:51.133Z,101
2023-05-18T05:35:07.261Z,106
2023-05-18T05:36:23.395Z,106
2023-05-18T05:37:39.533Z,106
2023-05-18T05:38:55.672Z,106
2023-05-18T05:40:11.803Z,106
2023-05-18T05:41:27.945Z,112
2023-05-18T05:42:44.083Z,112
2023-05-18T05:44:00.210Z,112
2023-05-18T05:45:16.346Z,112
2023-05-18T05:46:32.472Z,112
2023-05-18T05:47:48.605Z,118
2023-05-18T05:49:04.756Z,123
2023-05-18T05:50:20.899Z,123
2023-05-18T05:51:37.029Z,123
2023-05-18T05:52:53.159Z,123
2023-05-18T05:54:09.285Z,123
2023-05-18T05:55:25.437Z,129
2023-05-18T05:56:41.579Z,129
2023-05-18T05:57:57.713Z,123
2023-05-18T05:59:13.843Z,129
2023-05-18T06:00:29.968Z,135
2023-05-18T06:01:46.121Z,140
2023-05-18T06:03:02.260Z,140
2023-05-18T06:04:18.381Z,146
2023-05-18T06:05:34.515Z,146
2023-05-18T06:06:50.652Z,146
2023-05-18T06:08:06.801Z,151
2023-05-18T06:09:22.930Z,151
2023-05-18T06:10:39.059Z,157
2023-05-18T06:11:55.190Z,157
2023-05-18T06:13:11.336Z,157
2023-05-18T06:14:27.472Z,157
2023-05-18T06:15:43.676Z,157
2023-05-18T06:16:58.905Z,157
2023-05-18T06:18:14.123Z,151
2023-05-18T06:19:30.255Z,157
2023-05-18T06:20:46.388Z,163
2023-05-18T06:22:02.508Z,163
2023-05-18T06:23:18.645Z,163
2023-05-18T06:24:34.799Z,163
2023-05-18T06:25:50.931Z,168
2023-05-18T06:27:07.057Z,180
2023-05-18T06:28:23.192Z,180
2023-05-18T06:29:39.332Z,191
2023-05-18T06:30:55.471Z,202
2023-05-18T06:32:11.611Z,208
2023-05-18T06:33:27.743Z,213
2023-05-18T06:34:43.871Z,219
2023-05-18T06:36:00.005Z,225
2023-05-18T06:37:16.163Z,225
2023-05-18T06:38:32.302Z,225
2023-05-18T06:39:48.433Z,230
2023-05-18T06:41:04.565Z,230
2023-05-18T06:42:20.693Z,236
2023-05-18T06:43:36.831Z,230
2023-05-18T06:44:52.983Z,236
2023-05-18T06:46:09.114Z,236
2023-05-18T06:47:25.241Z,236
2023-05-18T06:48:41.375Z,241
2023-05-18T06:49:57.581Z,241
2023-05-18T06:51:12.832Z,241
2023-05-18T06:52:29.027Z,236
2023-05-18T06:53:44.239Z,241
2023-05-18T06:55:00.369Z,241
2023-05-18T06:56:16.503Z,241
2023-05-18T06:57:32.649Z,247
2023-05-18T06:58:48.775Z,247
2023-05-18T07:00:04.929Z,247
2023-05-18T07:01:21.046Z,253
2023-05-18T07:02:37.187Z,253
2023-05-18T07:03:53.311Z,253
2023-05-18T07:05:09.457Z,253
2023-05-18T07:06:25.603Z,253
2023-05-18T07:07:41.735Z,264
2023-05-18T07:08:57.875Z,275
2023-05-18T07:10:14.007Z,292
2023-05-18T07:11:30.136Z,309
2023-05-18T07:12:46.274Z,523
2023-05-18T07:14:02.406Z,1006
2023-05-18T07:15:18.555Z,1192
2023-05-18T07:16:34.690Z,1186
2023-05-18T07:17:50.805Z,1237
2023-05-18T07:19:06.962Z,1198
2023-05-18T07:20:23.097Z,1158
2023-05-18T07:21:39.221Z,1175
2023-05-18T07:22:55.362Z,855
2023-05-18T07:24:11.491Z,1265
2023-05-18T07:25:27.712Z,1338
2023-05-18T07:26:42.933Z,1350
2023-05-18T07:27:58.140Z,1299
2023-05-18T07:29:14.294Z,1378
2023-05-18T07:30:30.433Z,1355
2023-05-18T07:31:46.563Z,1046
2023-05-18T07:33:02.688Z,1018
2023-05-18T07:34:18.818Z,911
2023-05-18T07:35:34.965Z,1091
2023-05-18T07:36:51.102Z,1276
2023-05-18T07:38:07.231Z,1355
2023-05-18T07:39:23.373Z,1389
2023-05-18T07:40:39.517Z,1445
2023-05-18T07:41:55.650Z,1518
2023-05-18T07:43:11.798Z,1530
2023-05-18T07:44:27.915Z,1558
2023-05-18T07:45:44.046Z,1518
2023-05-18T07:47:00.191Z,1513
2023-05-18T07:48:16.330Z,1501
2023-05-18T07:49:32.460Z,1479
2023-05-18T07:50:48.602Z,1501
2023-05-18T07:52:04.735Z,1490
2023-05-18T07:53:20.872Z,1490
2023-05-18T07:54:37.016Z,1417
2023-05-18T07:55:53.144Z,1355
2023-05-18T07:57:09.283Z,1400
2023-05-18T07:58:25.422Z,1445
2023-05-18T07:59:41.617Z,1507
2023-05-18T08:00:56.849Z,1541
2023-05-18T08:02:12.065Z,1575
2023-05-18T08:03:28.196Z,1569
2023-05-18T08:04:44.346Z,1603
2023-05-18T08:06:00.478Z,1563
2023-05-18T08:07:16.617Z,1558
2023-05-18T08:08:32.740Z,1541
2023-05-18T08:09:48.882Z,1507
2023-05-18T08:11:05.014Z,1451
2023-05-18T08:12:21.162Z,1552
2023-05-18T08:13:37.294Z,1575
2023-05-18T08:14:53.421Z,1597
2023-05-18T08:16:09.552Z,1546
2023-05-18T08:17:25.712Z,1485
2023-05-18T08:18:41.851Z,1558
2023-05-18T08:19:57.977Z,1698
2023-05-18T08:21:14.108Z,1653
2023-05-18T08:22:30.238Z,1614
2023-05-18T08:23:46.383Z,1569
2023-05-18T08:25:02.528Z,1558
2023-05-18T08:26:18.653Z,1575
2023-05-18T08:27:34.802Z,1591
2023-05-18T08:28:50.929Z,1597
2023-05-18T08:30:07.070Z,1507
2023-05-18T08:31:23.200Z,1580
2023-05-18T08:32:39.349Z,1603
2023-05-18T08:33:55.545Z,1580
2023-05-18T08:35:10.784Z,1603
2023-05-18T08:36:26.963Z,1614
2023-05-18T08:37:42.176Z,1687
2023-05-18T08:38:58.317Z,1738
2023-05-18T08:40:14.454Z,1749
2023-05-18T08:41:30.590Z,405
2023-05-18T08:42:46.724Z,303
2023-05-18T08:44:02.850Z,315
2023-05-18T08:45:18.999Z,455
2023-05-18T08:46:35.138Z,528
2023-05-18T08:47:51.281Z,585
2023-05-18T08:49:07.418Z,922
2023-05-18T08:50:23.540Z,1001
2023-05-18T08:51:39.685Z,1766
2023-05-18T08:52:55.814Z,1957
2023-05-18T08:54:11.960Z,1946
2023-05-18T08:55:28.097Z,1935
2023-05-18T08:56:44.230Z,1951
2023-05-18T08:58:00.362Z,1906
2023-05-18T08:59:16.512Z,1946
2023-05-18T09:00:32.632Z,1912
2023-05-18T09:01:48.786Z,1929
2023-05-18T09:03:04.913Z,1912
2023-05-18T09:04:21.039Z,1850
2023-05-18T09:05:37.182Z,1839
2023-05-18T09:06:53.317Z,1974
2023-05-18T09:08:09.462Z,1074
2023-05-18T09:09:25.652Z,2064
2023-05-18T09:10:40.897Z,1783
2023-05-18T09:11:56.093Z,2019
2023-05-18T09:13:11.249Z,1586
2023-05-18T09:14:27.392Z,1507
2023-05-18T09:15:43.542Z,2008
2023-05-18T09:16:59.675Z,2036
2023-05-18T09:18:15.793Z,1935
2023-05-18T09:19:31.942Z,1946
2023-05-18T09:20:48.088Z,2019
2023-05-18T09:22:04.217Z,2086
2023-05-18T09:23:20.345Z,2092
2023-05-18T09:24:36.479Z,2036
2023-05-18T09:25:52.629Z,2058
2023-05-18T09:27:08.773Z,2013
2023-05-18T09:28:24.908Z,652
2023-05-18T09:29:41.046Z,433
2023-05-18T09:30:57.171Z,365
2023-05-18T09:32:13.313Z,331
2023-05-18T09:33:29.454Z,376
2023-05-18T09:34:45.593Z,303
2023-05-18T09:36:01.729Z,303
2023-05-18T09:37:17.860Z,298
2023-05-18T09:38:34.001Z,286
2023-05-18T09:39:50.145Z,281
2023-05-18T09:41:06.277Z,281
2023-05-18T09:42:22.409Z,371
2023-05-18T09:43:38.542Z,315
2023-05-18T09:44:54.683Z,281
2023-05-18T09:46:10.835Z,292
2023-05-18T09:47:26.963Z,326
2023-05-18T09:48:43.093Z,337
2023-05-18T09:49:59.229Z,326
2023-05-18T09:51:15.366Z,337
2023-05-18T09:52:31.506Z,393
2023-05-18T09:53:47.646Z,871
2023-05-18T09:55:03.783Z,855
2023-05-18T09:56:19.916Z,860
2023-05-18T09:57:36.050Z,855
2023-05-18T09:58:52.195Z,838
2023-05-18T10:00:08.384Z,877
2023-05-18T10:01:23.628Z,866
2023-05-18T10:02:38.823Z,765
2023-05-18T10:03:54.970Z,315
2023-05-18T10:05:11.100Z,303
2023-05-18T10:06:27.235Z,298
2023-05-18T10:07:43.364Z,275
2023-05-18T10:08:59.524Z,270
2023-05-18T10:10:15.659Z,264
2023-05-18T10:11:31.790Z,253
2023-05-18T10:12:47.922Z,247
2023-05-18T10:14:04.000Z,247
2023-05-18T10:15:20.200Z,241
2023-05-18T10:16:36.327Z,258
2023-05-18T10:17:52.473Z,270
2023-05-18T10:19:08.600Z,281
2023-05-18T10:20:24.725Z,303
2023-05-18T10:21:40.889Z,309
2023-05-18T10:22:57.020Z,309
2023-05-18T10:24:13.144Z,292
2023-05-18T10:25:29.287Z,270
2023-05-18T10:26:45.415Z,253
2023-05-18T10:28:01.569Z,241
2023-05-18T10:29:17.700Z,230
2023-05-18T10:30:33.831Z,219
2023-05-18T10:31:49.961Z,213
2023-05-18T10:33:06.099Z,202
2023-05-18T10:34:22.314Z,208
2023-05-18T10:35:37.541Z,213
2023-05-18T10:36:52.753Z,225
2023-05-18T10:38:08.889Z,241
2023-05-18T10:39:25.024Z,264
2023-05-18T10:40:41.162Z,286
2023-05-18T10:41:57.305Z,303
2023-05-18T10:43:13.424Z,331
2023-05-18T10:44:29.586Z,360
2023-05-18T10:45:45.717Z,393
2023-05-18T10:47:01.846Z,534
2023-05-18T10:48:17.974Z,405
2023-05-18T10:49:34.116Z,382
2023-05-18T10:50:50.261Z,360
2023-05-18T10:52:06.399Z,298
2023-05-18T10:53:22.533Z,275
2023-05-18T10:54:38.664Z,264
2023-05-18T10:55:54.784Z,258
2023-05-18T10:57:10.947Z,253
2023-05-18T10:58:27.081Z,247
2023-05-18T10:59:43.206Z,360
2023-05-18T11:00:59.346Z,225
2023-05-18T11:02:15.484Z,213
2023-05-18T11:03:31.619Z,208
2023-05-18T11:04:47.756Z,225
2023-05-18T11:06:03.891Z,247
2023-05-18T11:07:20.021Z,258
2023-05-18T11:08:36.225Z,247
2023-05-18T11:09:51.482Z,230
2023-05-18T11:11:07.657Z,213
2023-05-18T11:12:22.883Z,213
2023-05-18T11:13:39.011Z,202
2023-05-18T11:14:55.155Z,191
2023-05-18T11:16:11.293Z,191
2023-05-18T11:17:27.410Z,196
2023-05-18T11:18:43.560Z,202
2023-05-18T11:19:59.698Z,213
2023-05-18T11:21:15.830Z,225
2023-05-18T11:22:31.972Z,225
2023-05-18T11:23:48.088Z,230
2023-05-18T11:25:04.233Z,236
2023-05-18T11:26:20.387Z,241
2023-05-18T11:27:36.507Z,258
2023-05-18T11:28:52.645Z,270
2023-05-18T11:30:08.770Z,281
2023-05-18T11:31:24.900Z,337
2023-05-18T11:32:41.064Z,343
2023-05-18T11:33:57.197Z,315
2023-05-18T11:35:13.332Z,286
2023-05-18T11:36:29.463Z,281
2023-05-18T11:37:45.592Z,275
2023-05-18T11:39:01.741Z,270
2023-05-18T11:40:17.871Z,264
2023-05-18T11:41:34.006Z,264
2023-05-18T11:42:50.144Z,270
2023-05-18T11:44:06.334Z,247
2023-05-18T11:45:21.557Z,247
2023-05-18T11:46:36.767Z,247
2023-05-18T11:47:52.897Z,247
2023-05-18T11:49:09.049Z,241
2023-05-18T11:50:25.178Z,241
2023-05-18T11:51:41.319Z,241
2023-05-18T11:52:57.460Z,230
2023-05-18T11:54:13.589Z,230
2023-05-18T11:55:29.737Z,236
2023-05-18T11:56:45.882Z,241
2023-05-18T11:58:02.012Z,241
2023-05-18T11:59:18.142Z,247
2023-05-18T12:00:34.274Z,275
2023-05-18T12:01:50.421Z,264
2023-05-18T12:03:06.557Z,247
2023-05-18T12:04:22.693Z,241
2023-05-18T12:05:38.830Z,219
2023-05-18T12:06:54.963Z,213
2023-05-18T12:08:11.103Z,236
2023-05-18T12:09:27.246Z,219
2023-05-18T12:10:43.368Z,230
2023-05-18T12:11:59.502Z,230
2023-05-18T12:13:15.628Z,230
2023-05-18T12:14:31.789Z,213
2023-05-18T12:15:47.927Z,191
2023-05-18T12:17:04.049Z,191
2023-05-18T12:18:20.237Z,191
2023-05-18T12:19:35.481Z,247
2023-05-18T12:20:50.684Z,236
2023-05-18T12:22:05.846Z,253
2023-05-18T12:23:22.000Z,258
2023-05-18T12:24:38.134Z,241
2023-05-18T12:25:54.249Z,270
2023-05-18T12:27:10.397Z,247
2023-05-18T12:28:26.522Z,230
2023-05-18T12:29:42.676Z,219
2023-05-18T12:30:58.815Z,202
2023-05-18T12:32:14.936Z,208
2023-05-18T12:33:31.063Z,241
2023-05-18T12:34:47.199Z,247
2023-05-18T12:36:03.362Z,225
2023-05-18T12:37:19.484Z,196
2023-05-18T12:38:35.626Z,185
2023-05-18T12:39:51.745Z,180
2023-05-18T12:41:07.881Z,180
2023-05-18T12:42:24.036Z,191
2023-05-18T12:43:40.163Z,196
2023-05-18T12:44:56.313Z,202
2023-05-18T12:46:12.436Z,202
2023-05-18T12:47:28.563Z,219
2023-05-18T12:48:44.713Z,219
2023-05-18T12:50:00.853Z,208
2023-05-18T12:51:16.981Z,208
2023-05-18T12:52:33.111Z,213
2023-05-18T12:53:49.256Z,208
2023-05-18T12:55:05.396Z,196
2023-05-18T12:56:21.541Z,191
2023-05-18T12:57:37.662Z,191
2023-05-18T12:58:53.795Z,180
2023-05-18T13:00:09.940Z,168
2023-05-18T13:01:26.091Z,163
2023-05-18T13:02:42.221Z,157
2023-05-18T13:03:58.357Z,151
2023-05-18T13:05:14.487Z,151
2023-05-18T13:06:30.623Z,140
2023-05-18T13:07:46.765Z,140
2023-05-18T13:09:02.958Z,146
2023-05-18T13:10:18.194Z,151
2023-05-18T13:11:33.393Z,151
2023-05-18T13:12:49.525Z,157
2023-05-18T13:14:05.673Z,157
2023-05-18T13:15:21.796Z,163
2023-05-18T13:16:37.929Z,163
2023-05-18T13:17:54.000Z,163
2023-05-18T13:19:10.222Z,168
2023-05-18T13:20:26.345Z,168
2023-05-18T13:21:42.489Z,168
2023-05-18T13:22:58.618Z,168
2023-05-18T13:24:14.769Z,168
2023-05-18T13:25:30.902Z,168
2023-05-18T13:26:47.036Z,163
2023-05-18T13:28:03.158Z,163
2023-05-18T13:29:19.293Z,163
2023-05-18T13:30:35.435Z,163
2023-05-18T13:31:51.575Z,163
2023-05-18T13:33:07.708Z,163
2023-05-18T13:34:23.839Z,168
2023-05-18T13:35:39.979Z,157
2023-05-18T13:36:56.125Z,151
2023-05-18T13:38:12.266Z,151
2023-05-18T13:39:28.401Z,151
2023-05-18T13:40:44.532Z,151
2023-05-18T13:42:00.668Z,151
2023-05-18T13:43:16.873Z,146
2023-05-18T13:44:32.113Z,151
2023-05-18T13:45:48.285Z,151
2023-05-18T13:47:03.501Z,151
2023-05-18T13:48:19.632Z,157
2023-05-18T13:49:35.769Z,157
2023-05-18T13:50:51.897Z,157
2023-05-18T13:52:08.027Z,163
2023-05-18T13:53:24.175Z,168
2023-05-18T13:54:40.317Z,163
2023-05-18T13:55:56.445Z,157
2023-05-18T13:57:12.583Z,157
2023-05-18T13:58:28.713Z,157
2023-05-18T13:59:44.863Z,151
2023-05-18T14:01:00.999Z,151
2023-05-18T14:02:17.136Z,146
2023-05-18T14:03:33.258Z,146
2023-05-18T14:04:49.403Z,146
2023-05-18T14:06:05.546Z,140
2023-05-18T14:07:21.696Z,135
2023-05-18T14:08:37.816Z,135
2023-05-18T14:09:53.948Z,129
2023-05-18T14:11:10.076Z,129
2023-05-18T14:12:26.216Z,129
2023-05-18T14:13:42.363Z,123
2023-05-18T14:14:58.481Z,123
2023-05-18T14:16:14.613Z,123
2023-05-18T14:17:30.746Z,123
2023-05-18T14:20:03.145Z,118
2023-05-18T14:21:19.439Z,118
2023-05-18T14:22:34.588Z,118
2023-05-18T14:23:50.724Z,118
2023-05-18T14:25:06.868Z,112
2023-05-18T14:26:22.991Z,112
2023-05-18T14:27:39.128Z,112
2023-05-18T14:28:55.261Z,106
2023-05-18T14:30:11.414Z,106
2023-05-18T14:31:27.544Z,101
2023-05-18T14:32:43.685Z,101
2023-05-18T14:33:59.804Z,101
2023-05-18T14:35:15.942Z,95
2023-05-18T14:36:32.099Z,95
2023-05-18T14:37:48.223Z,95
2023-05-18T14:39:04.367Z,95
2023-05-18T14:40:20.487Z,95
2023-05-18T14:41:36.619Z,95
2023-05-18T14:42:52.785Z,95
2023-05-18T14:44:08.917Z,95
2023-05-18T14:45:25.040Z,90
2023-05-18T14:46:41.177Z,90
2023-05-18T14:47:57.320Z,90
2023-05-18T14:49:13.455Z,90
2023-05-18T14:50:29.596Z,90
2023-05-18T14:51:45.725Z,90
2023-05-18T14:53:01.859Z,90
2023-05-18T14:54:17.988Z,90
2023-05-18T14:55:34.134Z,90
2023-05-18T14:56:50.269Z,90
2023-05-18T14:58:06.411Z,90
2023-05-18T14:59:22.537Z,90
2023-05-18T15:00:38.664Z,95
2023-05-18T15:01:54.826Z,95
2023-05-18T15:03:10.961Z,95
2023-05-18T15:04:27.082Z,95
2023-05-18T15:05:43.227Z,90
2023-05-18T15:06:59.346Z,84
2023-05-18T15:08:15.496Z,84
2023-05-18T15:09:31.699Z,84
2023-05-18T15:10:46.925Z,78
2023-05-18T15:12:02.149Z,78
2023-05-18T15:13:18.279Z,84
2023-05-18T15:14:34.398Z,84
2023-05-18T15:15:50.544Z,84
2023-05-18T15:17:06.675Z,90
2023-05-18T15:18:22.830Z,90
2023-05-18T15:19:38.955Z,90
2023-05-18T15:20:55.081Z,90
2023-05-18T15:22:11.226Z,90
2023-05-18T15:23:27.345Z,90
2023-05-18T15:24:43.505Z,90
2023-05-18T15:25:59.639Z,90
2023-05-18T15:27:15.767Z,90
2023-05-18T15:28:31.909Z,90
2023-05-18T15:29:48.032Z,90
2023-05-18T15:31:04.187Z,90
2023-05-18T15:32:20.317Z,90
2023-05-18T15:33:36.444Z,90
2023-05-18T15:34:52.588Z,90
2023-05-18T15:36:08.706Z,90
2023-05-18T15:37:24.860Z,90
2023-05-18T15:38:41.000Z,90
2023-05-18T15:39:57.126Z,90
2023-05-18T15:41:13.267Z,90
2023-05-18T15:42:29.400Z,84
2023-05-18T15:43:45.594Z,84
2023-05-18T15:45:00.855Z,78
2023-05-18T15:46:16.066Z,78
2023-05-18T15:47:32.216Z,73
2023-05-18T15:48:48.352Z,73
2023-05-18T15:50:04.480Z,67
2023-05-18T15:51:20.617Z,67
2023-05-18T15:52:36.753Z,67
2023-05-18T15:53:52.898Z,61
2023-05-18T15:55:09.021Z,61
2023-05-18T15:56:25.169Z,56
2023-05-18T15:57:41.298Z,56
2023-05-18T15:58:57.425Z,56
2023-05-18T16:00:13.573Z,56
2023-05-18T16:01:29.702Z,56
2023-05-18T16:02:45.847Z,56
2023-05-18T16:04:01.980Z,56
2023-05-18T16:05:18.114Z,56
2023-05-18T16:06:34.247Z,56
2023-05-18T16:07:50.385Z,56
2023-05-18T16:09:06.523Z,56
2023-05-18T16:10:22.651Z,61
2023-05-18T16:11:38.785Z,61
2023-05-18T16:12:54.938Z,61
2023-05-18T16:14:11.078Z,61
2023-05-18T16:15:27.195Z,61
2023-05-18T16:16:43.341Z,61
2023-05-18T16:17:59.531Z,61
2023-05-18T16:19:14.766Z,61
2023-05-18T16:20:30.954Z,61
2023-05-18T16:21:46.172Z,61
2023-05-18T16:23:02.317Z,61
2023-05-18T16:24:18.448Z,56
2023-05-18T16:25:34.581Z,56
2023-05-18T16:26:50.699Z,56
2023-05-18T16:28:06.848Z,56
2023-05-18T16:29:22.979Z,56
2023-05-18T16:30:39.131Z,56
2023-05-18T16:31:55.262Z,56
2023-05-18T16:33:11.394Z,56
2023-05-18T16:34:27.529Z,56
2023-05-18T16:35:43.676Z,56
2023-05-18T16:36:59.810Z,56
2023-05-18T16:38:15.944Z,56
2023-05-18T16:39:32.079Z,56
2023-05-18T16:40:48.205Z,56
2023-05-18T16:42:04.357Z,56
2023-05-18T16:43:20.482Z,56
2023-05-18T16:44:36.615Z,56
2023-05-18T16:45:52.746Z,56
2023-05-18T16:47:08.880Z,56
2023-05-18T16:48:25.026Z,50
2023-05-18T16:49:41.163Z,50
2023-05-18T16:50:57.449Z,50
2023-05-18T16:52:12.598Z,50
2023-05-18T16:53:28.743Z,45
2023-05-18T16:54:44.883Z,45
2023-05-18T16:56:01.017Z,45
2023-05-18T16:57:17.148Z,45
2023-05-18T16:58:33.277Z,45
2023-05-18T16:59:49.433Z,45
2023-05-18T17:01:05.555Z,39
2023-05-18T17:02:21.681Z,39
2023-05-18T17:03:37.830Z,39
2023-05-18T17:04:53.950Z,39
2023-05-18T17:06:10.110Z,39
2023-05-18T17:07:26.237Z,39
2023-05-18T17:08:42.375Z,39
2023-05-18T17:09:58.512Z,39
2023-05-18T17:11:14.641Z,39
2023-05-18T17:12:30.793Z,39
2023-05-18T17:13:46.924Z,45
2023-05-18T17:15:03.045Z,45
2023-05-18T17:16:19.188Z,45
2023-05-18T17:17:35.319Z,45
2023-05-18T17:18:51.471Z,50
2023-05-18T17:20:07.598Z,50
2023-05-18T17:21:23.740Z,50
2023-05-18T17:22:39.860Z,50
2023-05-18T17:23:55.999Z,50
2023-05-18T17:25:12.139Z,50
2023-05-18T17:26:28.286Z,45
2023-05-18T17:27:44.405Z,39
2023-05-18T17:29:00.542Z,33
2023-05-18T17:30:16.684Z,28
2023-05-18T17:31:32.835Z,28
2023-05-18T17:32:48.969Z,28
2023-05-18T17:34:05.087Z,22
2023-05-18T17:35:21.232Z,22
2023-05-18T17:36:37.361Z,22
2023-05-18T17:37:53.506Z,22
2023-05-18T17:39:09.707Z,28
2023-05-18T17:40:24.938Z,28
2023-05-18T17:41:40.201Z,28
2023-05-18T17:42:55.421Z,28
2023-05-18T17:44:10.555Z,28
2023-05-18T17:45:26.711Z,28
2023-05-18T17:46:42.846Z,22
2023-05-18T17:47:58.983Z,22
2023-05-18T17:49:15.106Z,22
2023-05-18T17:50:31.256Z,22